createdAt,value
2019-01-08T00:01:14.829Z,94892.19
2019-01-08T00:03:43.387Z,94898.28
2019-01-08T00:06:11.959Z,94895.76
2019-01-08T00:08:40.793Z,94885.19
2019-01-08T00:11:09.347Z,94884.30
2019-01-08T00:13:38.304Z,94884.64
2019-01-08T00:16:07.125Z,94875.41
2019-01-08T00:18:35.701Z,94863.53
2019-01-08T00:21:04.251Z,94867.72
2019-01-08T00:23:32.964Z,94873.74
2019-01-08T00:26:01.769Z,94886.27
2019-01-08T00:28:30.321Z,94876.63
2019-01-08T00:30:58.951Z,94850.16
2019-01-08T00:33:27.744Z,94863.72
2019-01-08T00:35:56.332Z,94849.67
2019-01-08T00:38:25.004Z,94851.36
2019-01-08T00:40:53.585Z,94860.86
2019-01-08T00:43:22.154Z,94849.53
2019-01-08T00:45:50.757Z,94850.36
2019-01-08T00:48:19.328Z,94849.62
2019-01-08T00:50:47.969Z,94839.22
2019-01-08T00:53:16.610Z,94844.25
2019-01-08T00:55:45.180Z,94833.48
2019-01-08T00:58:13.974Z,94834.94
2019-01-08T01:00:42.863Z,94824.78
2019-01-08T01:03:11.419Z,94820.56
2019-01-08T01:05:39.993Z,94803.72
2019-01-08T01:08:08.558Z,94802.27
2019-01-08T01:10:37.158Z,94813.53
2019-01-08T01:13:06.086Z,94809.67
2019-01-08T01:15:34.660Z,94789.79
2019-01-08T01:18:03.559Z,94784.62
2019-01-08T01:20:32.853Z,94790.22
2019-01-08T01:23:01.644Z,94795.67
2019-01-08T01:25:30.225Z,94815.73
2019-01-08T01:27:59.018Z,94840.64
2019-01-08T01:30:27.564Z,94841.64
2019-01-08T01:32:56.352Z,94812.21
2019-01-08T01:35:24.923Z,94820.58
2019-01-08T01:37:53.493Z,94831.44
2019-01-08T01:40:22.055Z,94823.72
2019-01-08T01:42:50.620Z,94834.09
2019-01-08T01:45:19.212Z,94823.93
2019-01-08T01:47:47.798Z,94816.03
2019-01-08T01:50:16.379Z,94826.09
2019-01-08T01:52:45.032Z,94818.94
2019-01-08T01:55:13.635Z,94830.91
2019-01-08T01:57:42.282Z,94825.56
2019-01-08T02:00:10.924Z,94822.17
2019-01-08T02:02:39.531Z,94827.80
2019-01-08T02:05:08.102Z,94837.09
2019-01-08T02:07:37.000Z,94815.70
2019-01-08T02:10:05.760Z,94820.19
2019-01-08T02:12:34.847Z,94824.54
2019-01-08T02:15:04.027Z,94812.89
2019-01-08T02:17:32.632Z,94807.33
2019-01-08T02:20:01.210Z,94800.75
2019-01-08T02:22:30.014Z,94802.13
2019-01-08T02:24:58.599Z,94807.56
2019-01-08T02:27:27.182Z,94797.75
2019-01-08T02:29:55.746Z,94805.62
2019-01-08T02:32:24.315Z,94803.69
2019-01-08T02:34:52.975Z,94785.94
2019-01-08T02:37:21.624Z,94788.43
2019-01-08T02:39:50.202Z,94801.13
2019-01-08T02:42:18.787Z,94790.64
2019-01-08T02:44:47.774Z,94789.56
2019-01-08T02:47:16.266Z,94797.59
2019-01-08T02:49:44.850Z,94769.32
2019-01-08T02:52:13.480Z,94770.23
2019-01-08T02:54:42.170Z,94774.76
2019-01-08T02:57:10.945Z,94765.58
2019-01-08T02:59:39.506Z,94760.85
2019-01-08T03:02:08.111Z,94758.53
2019-01-08T03:04:36.706Z,94753.82
2019-01-08T03:07:05.772Z,94744.00
2019-01-08T03:09:38.195Z,94738.36
2019-01-08T03:12:07.023Z,94732.66
2019-01-08T03:14:35.583Z,94726.56
2019-01-08T03:17:04.198Z,94718.41
2019-01-08T03:19:32.774Z,94708.69
2019-01-08T03:22:01.820Z,94706.34
2019-01-08T03:24:30.374Z,94700.29
2019-01-08T03:26:58.927Z,94686.88
2019-01-08T03:29:33.535Z,94694.42
2019-01-08T03:31:57.815Z,94694.45
2019-01-08T03:34:26.388Z,94681.36
2019-01-08T03:36:55.248Z,94666.64
2019-01-08T03:39:23.906Z,94659.30
2019-01-08T03:41:52.498Z,94669.14
2019-01-08T03:44:21.301Z,94639.96
2019-01-08T03:46:49.890Z,94636.05
2019-01-08T03:49:18.484Z,94630.91
2019-01-08T03:51:47.062Z,94630.46
2019-01-08T03:54:15.644Z,94614.52
2019-01-08T03:56:44.236Z,94616.73
2019-01-08T03:59:13.023Z,94617.08
2019-01-08T04:01:41.827Z,94612.32
2019-01-08T04:04:10.417Z,94608.16
2019-01-08T04:06:38.980Z,94607.58
2019-01-08T04:09:07.861Z,94586.07
2019-01-08T04:11:36.608Z,94593.63
2019-01-08T04:14:05.256Z,94586.69
2019-01-08T04:16:33.832Z,94588.44
2019-01-08T04:19:02.419Z,94591.58
2019-01-08T04:21:31.090Z,94576.05
2019-01-08T04:23:59.677Z,94577.50
2019-01-08T04:26:28.232Z,94574.64
2019-01-08T04:28:56.832Z,94571.38
2019-01-08T04:31:25.391Z,94572.11
2019-01-08T04:33:54.246Z,94562.03
2019-01-08T04:36:22.839Z,94567.73
2019-01-08T04:38:51.442Z,94560.80
2019-01-08T04:41:20.024Z,94553.59
2019-01-08T04:43:48.610Z,94544.08
2019-01-08T04:46:17.218Z,94548.59
2019-01-08T04:48:45.786Z,94542.72
2019-01-08T04:51:14.619Z,94528.14
2019-01-08T04:53:43.219Z,94513.22
2019-01-08T04:56:12.061Z,94518.63
2019-01-08T04:58:40.910Z,94515.44
2019-01-08T05:01:09.479Z,94510.55
2019-01-08T05:03:38.061Z,94506.97
2019-01-08T05:06:06.673Z,94509.30
2019-01-08T05:08:35.264Z,94487.42
2019-01-08T05:11:04.928Z,94493.27
2019-01-08T05:13:33.494Z,94480.41
2019-01-08T05:16:02.611Z,94483.20
2019-01-08T05:18:31.178Z,94476.92
2019-01-08T05:20:59.737Z,94462.13
2019-01-08T05:23:28.296Z,94453.33
2019-01-08T05:25:56.929Z,94461.44
2019-01-08T05:28:25.478Z,94459.87
2019-01-08T05:30:54.045Z,94468.22
2019-01-08T05:33:22.619Z,94466.75
2019-01-08T05:35:51.209Z,94457.25
2019-01-08T05:38:19.972Z,94457.83
2019-01-08T05:40:48.827Z,94459.69
2019-01-08T05:43:17.436Z,94466.94
2019-01-08T05:45:46.122Z,94470.36
2019-01-08T05:48:14.732Z,94459.00
2019-01-08T05:50:43.330Z,94449.23
2019-01-08T05:53:12.029Z,94449.07
2019-01-08T05:55:40.725Z,94454.88
2019-01-08T05:58:09.574Z,94447.81
2019-01-08T06:00:38.159Z,94449.83
2019-01-08T06:03:06.760Z,94426.84
2019-01-08T06:05:35.411Z,94432.17
2019-01-08T06:08:04.100Z,94451.59
2019-01-08T06:10:32.812Z,94436.20
2019-01-08T06:13:01.432Z,94424.41
2019-01-08T06:15:30.115Z,94421.20
2019-01-08T06:17:58.721Z,94425.06
2019-01-08T06:20:27.302Z,94415.27
2019-01-08T06:22:55.922Z,94413.06
2019-01-08T06:25:24.729Z,94434.27
2019-01-08T06:27:53.401Z,94419.52
2019-01-08T06:30:24.805Z,94407.37
2019-01-08T06:32:52.386Z,94396.25
2019-01-08T06:35:20.998Z,94402.42
2019-01-08T06:37:49.742Z,94418.44
2019-01-08T06:40:18.365Z,94428.28
2019-01-08T06:42:46.952Z,94423.92
2019-01-08T06:45:18.019Z,94427.06
2019-01-08T06:47:46.620Z,94422.82
2019-01-08T06:50:15.470Z,94424.52
2019-01-08T06:52:44.584Z,94433.11
2019-01-08T06:55:13.226Z,94434.11
2019-01-08T06:57:41.816Z,94443.28
2019-01-08T07:00:11.120Z,94433.15
2019-01-08T07:02:39.719Z,94429.00
2019-01-08T07:05:08.502Z,94439.16
2019-01-08T07:07:37.173Z,94431.80
2019-01-08T07:10:06.436Z,94416.24
2019-01-08T07:12:35.022Z,94411.29
2019-01-08T07:15:03.730Z,94449.22
2019-01-08T07:17:32.327Z,94407.83
2019-01-08T07:20:01.051Z,94409.31
2019-01-08T07:22:29.596Z,94395.70
2019-01-08T07:24:58.410Z,94404.48
2019-01-08T07:27:27.011Z,94404.60
2019-01-08T07:29:55.577Z,94416.22
2019-01-08T07:32:24.284Z,94402.54
2019-01-08T07:34:53.176Z,94397.41
2019-01-08T07:37:21.746Z,94409.42
2019-01-08T07:39:50.357Z,94408.94
2019-01-08T07:42:19.277Z,94403.48
2019-01-08T07:44:47.853Z,94409.84
2019-01-08T07:47:16.719Z,94415.89
2019-01-08T07:49:45.554Z,94409.42
2019-01-08T07:52:14.508Z,94404.73
2019-01-08T07:54:43.187Z,94404.78
2019-01-08T07:57:12.848Z,94398.13
2019-01-08T07:59:41.599Z,94419.35
2019-01-08T08:02:10.195Z,94399.60
2019-01-08T08:04:47.340Z,94410.52
2019-01-08T08:07:09.174Z,94404.30
2019-01-08T08:09:37.759Z,94393.76
2019-01-08T08:12:06.609Z,94394.70
2019-01-08T08:14:35.196Z,94401.77
2019-01-08T08:17:03.803Z,94415.66
2019-01-08T08:19:32.618Z,94400.94
2019-01-08T08:22:01.248Z,94396.70
2019-01-08T08:24:30.030Z,94399.36
2019-01-08T08:26:58.661Z,94386.86
2019-01-08T08:29:27.235Z,94377.58
2019-01-08T08:31:55.821Z,94389.84
2019-01-08T08:34:24.400Z,94381.38
2019-01-08T08:36:53.223Z,94397.47
2019-01-08T08:39:21.816Z,94370.31
2019-01-08T08:41:50.424Z,94366.78
2019-01-08T08:44:19.070Z,94350.05
2019-01-08T08:46:47.690Z,94357.52
2019-01-08T08:49:16.301Z,94370.07
2019-01-08T08:51:44.871Z,94364.82
2019-01-08T08:54:13.632Z,94342.88
2019-01-08T08:56:42.515Z,94351.63
2019-01-08T08:59:11.103Z,94344.19
2019-01-08T09:01:39.748Z,94349.88
2019-01-08T09:04:08.305Z,94334.91
2019-01-08T09:06:36.967Z,94338.24
2019-01-08T09:09:06.723Z,94336.22
2019-01-08T09:11:35.390Z,94328.05
2019-01-08T09:14:04.054Z,94329.14
2019-01-08T09:16:32.696Z,94308.95
2019-01-08T09:19:01.368Z,94316.07
2019-01-08T09:21:30.110Z,94314.33
2019-01-08T09:23:58.860Z,94315.86
2019-01-08T09:26:27.845Z,94322.31
2019-01-08T09:28:56.616Z,94334.02
2019-01-08T09:31:25.495Z,94315.95
2019-01-08T09:33:54.014Z,94319.08
2019-01-08T09:36:22.991Z,94317.97
2019-01-08T09:38:51.639Z,94313.12
2019-01-08T09:41:20.288Z,94306.69
2019-01-08T09:43:48.912Z,94299.30
2019-01-08T09:46:17.644Z,94310.95
2019-01-08T09:48:46.268Z,94291.73
2019-01-08T09:51:14.848Z,94308.12
2019-01-08T09:53:43.461Z,94294.50
2019-01-08T09:56:12.306Z,94295.46
2019-01-08T09:58:40.894Z,94305.03
2019-01-08T10:01:09.952Z,94303.31
2019-01-08T10:03:38.656Z,94290.79
2019-01-08T10:06:07.331Z,94291.36
2019-01-08T10:08:36.097Z,94279.53
2019-01-08T10:11:04.822Z,94286.39
2019-01-08T10:13:33.852Z,94277.75
2019-01-08T10:16:02.448Z,94274.21
2019-01-08T10:18:31.059Z,94287.46
2019-01-08T10:20:59.662Z,94279.63
2019-01-08T10:23:28.244Z,94300.06
2019-01-08T10:25:56.826Z,94292.55
2019-01-08T10:28:25.761Z,94302.72
2019-01-08T10:30:54.531Z,94267.35
2019-01-08T10:33:23.147Z,94296.31
2019-01-08T10:35:52.467Z,94281.08
2019-01-08T10:38:21.099Z,94283.98
2019-01-08T10:40:49.774Z,94266.38
2019-01-08T10:43:18.382Z,94276.76
2019-01-08T10:45:47.746Z,94273.14
2019-01-08T10:48:16.337Z,94270.34
2019-01-08T10:50:44.960Z,94269.37
2019-01-08T10:53:13.628Z,94271.95
2019-01-08T10:55:42.271Z,94272.80
2019-01-08T10:58:10.832Z,94266.47
2019-01-08T11:00:39.440Z,94257.11
2019-01-08T11:03:07.995Z,94238.75
2019-01-08T11:05:37.566Z,94249.80
2019-01-08T11:08:06.206Z,94251.30
2019-01-08T11:10:35.067Z,94246.28
2019-01-08T11:13:03.723Z,94247.27
2019-01-08T11:15:32.294Z,94244.87
2019-01-08T11:18:01.112Z,94254.41
2019-01-08T11:20:29.707Z,94226.45
2019-01-08T11:22:58.283Z,94233.18
2019-01-08T11:25:26.852Z,94229.95
2019-01-08T11:27:55.414Z,94240.87
2019-01-08T11:30:24.057Z,94229.50
2019-01-08T11:32:52.663Z,94234.75
2019-01-08T11:35:21.487Z,94244.69
2019-01-08T11:37:50.140Z,94246.44
2019-01-08T11:40:18.699Z,94235.34
2019-01-08T11:42:47.288Z,94217.01
2019-01-08T11:45:15.848Z,94236.59
2019-01-08T11:47:44.514Z,94219.05
2019-01-08T11:50:13.107Z,94222.83
2019-01-08T11:52:41.652Z,94230.53
2019-01-08T11:55:10.215Z,94234.59
2019-01-08T11:57:39.007Z,94226.22
2019-01-08T12:00:09.884Z,94199.69
2019-01-08T12:02:38.518Z,94210.91
2019-01-08T12:05:07.133Z,94193.10
2019-01-08T12:07:35.801Z,94188.25
2019-01-08T12:10:04.610Z,94203.71
2019-01-08T12:12:33.243Z,94196.28
2019-01-08T12:15:01.808Z,94190.63
2019-01-08T12:17:30.673Z,94188.83
2019-01-08T12:19:59.239Z,94198.17
2019-01-08T12:22:27.832Z,94171.09
2019-01-08T12:24:56.383Z,94205.12
2019-01-08T12:27:24.969Z,94203.03
2019-01-08T12:29:53.622Z,94221.23
2019-01-08T12:32:22.230Z,94204.18
2019-01-08T12:34:51.008Z,94228.31
2019-01-08T12:37:19.663Z,94220.19
2019-01-08T12:39:48.243Z,94220.39
2019-01-08T12:42:17.216Z,94223.75
2019-01-08T12:44:45.791Z,94224.47
2019-01-08T12:47:14.358Z,94226.63
2019-01-08T12:49:42.950Z,94224.30
2019-01-08T12:52:11.665Z,94212.27
2019-01-08T12:54:40.236Z,94227.99
2019-01-08T12:57:09.016Z,94256.45
2019-01-08T12:59:38.108Z,94255.67
2019-01-08T13:02:14.571Z,94251.20
2019-01-08T13:04:37.234Z,94254.00
2019-01-08T13:07:06.111Z,94270.80
2019-01-08T13:09:34.660Z,94238.66
2019-01-08T13:12:03.508Z,94237.70
2019-01-08T13:14:32.090Z,94232.59
2019-01-08T13:17:00.745Z,94227.12
2019-01-08T13:19:29.329Z,94200.68
2019-01-08T13:21:57.925Z,94210.52
2019-01-08T13:24:26.780Z,94213.24
2019-01-08T13:26:55.591Z,94196.98
2019-01-08T13:29:24.187Z,94203.28
2019-01-08T13:31:52.767Z,94182.66
2019-01-08T13:34:21.356Z,94190.63
2019-01-08T13:36:50.011Z,94197.73
2019-01-08T13:39:18.822Z,94188.53
2019-01-08T13:41:47.410Z,94177.07
2019-01-08T13:44:15.986Z,94175.93
2019-01-08T13:46:44.584Z,94201.83
2019-01-08T13:49:13.186Z,94220.68
2019-01-08T13:51:41.788Z,94223.00
2019-01-08T13:54:10.363Z,94224.23
2019-01-08T13:56:39.012Z,94219.75
2019-01-08T13:59:07.568Z,94232.86
2019-01-08T14:01:36.153Z,94224.31
2019-01-08T14:04:04.895Z,94251.12
2019-01-08T14:06:33.628Z,94245.05
2019-01-08T14:09:02.435Z,94244.73
2019-01-08T14:11:31.175Z,94255.52
2019-01-08T14:13:59.759Z,94237.61
2019-01-08T14:16:28.396Z,94230.41
2019-01-08T14:18:56.960Z,94239.20
2019-01-08T14:21:25.528Z,94229.39
2019-01-08T14:23:54.120Z,94253.30
2019-01-08T14:26:22.703Z,94233.52
2019-01-08T14:28:51.291Z,94269.84
2019-01-08T14:31:20.130Z,94282.98
2019-01-08T14:33:48.741Z,94264.41
2019-01-08T14:36:17.332Z,94265.42
2019-01-08T14:38:46.195Z,94255.58
2019-01-08T14:41:14.780Z,94269.42
2019-01-08T14:43:43.379Z,94261.59
2019-01-08T14:46:11.962Z,94267.36
2019-01-08T14:48:40.546Z,94257.49
2019-01-08T14:51:09.104Z,94253.63
2019-01-08T14:53:37.692Z,94282.70
2019-01-08T14:56:06.285Z,94274.02
2019-01-08T14:58:34.846Z,94258.95
2019-01-08T15:01:03.445Z,94259.48
2019-01-08T15:03:32.013Z,94255.33
2019-01-08T15:06:00.592Z,94255.59
2019-01-08T15:08:29.158Z,94249.09
2019-01-08T15:10:57.994Z,94252.27
2019-01-08T15:13:26.827Z,94245.59
2019-01-08T15:15:55.430Z,94236.53
2019-01-08T15:18:24.011Z,94232.53
2019-01-08T15:20:52.856Z,94229.13
2019-01-08T15:23:22.005Z,94230.00
2019-01-08T15:25:51.186Z,94224.31
2019-01-08T15:28:19.789Z,94229.66
2019-01-08T15:30:48.365Z,94214.64
2019-01-08T15:33:17.062Z,94225.38
2019-01-08T15:35:45.647Z,94212.66
2019-01-08T15:38:14.230Z,94227.97
2019-01-08T15:40:42.790Z,94241.19
2019-01-08T15:43:11.444Z,94251.60
2019-01-08T15:45:40.048Z,94247.05
2019-01-08T15:48:08.655Z,94250.19
2019-01-08T15:50:37.263Z,94240.50
2019-01-08T15:53:05.861Z,94247.42
2019-01-08T15:55:34.654Z,94247.19
2019-01-08T15:58:03.288Z,94227.47
2019-01-08T16:00:32.158Z,94242.03
2019-01-08T16:03:07.068Z,94243.70
2019-01-08T16:05:31.102Z,94231.81
2019-01-08T16:08:00.056Z,94233.25
2019-01-08T16:10:28.641Z,94233.65
2019-01-08T16:12:57.502Z,94233.29
2019-01-08T16:15:26.139Z,94215.31
2019-01-08T16:17:54.746Z,94208.14
2019-01-08T16:20:23.346Z,94206.35
2019-01-08T16:22:51.924Z,94206.44
2019-01-08T16:25:20.771Z,94190.58
2019-01-08T16:27:49.567Z,94210.73
2019-01-08T16:30:20.118Z,94224.55
2019-01-08T16:32:48.642Z,94212.66
2019-01-08T16:35:17.256Z,94228.41
2019-01-08T16:37:46.002Z,94234.11
2019-01-08T16:40:14.670Z,94215.73
2019-01-08T16:42:43.316Z,94222.30
2019-01-08T16:45:12.200Z,94219.20
2019-01-08T16:47:41.196Z,94194.75
2019-01-08T16:50:09.822Z,94238.89
2019-01-08T16:52:38.957Z,94225.59
2019-01-08T16:55:07.592Z,94222.00
2019-01-08T16:57:36.426Z,94220.03
2019-01-08T17:00:07.018Z,94223.32
2019-01-08T17:02:36.500Z,94226.43
2019-01-08T17:05:05.574Z,94187.66
2019-01-08T17:07:34.270Z,94200.30
2019-01-08T17:10:03.197Z,94197.65
2019-01-08T17:12:31.778Z,94227.86
2019-01-08T17:15:00.423Z,94217.64
2019-01-08T17:17:29.137Z,94221.20
2019-01-08T17:19:57.872Z,94215.92
2019-01-08T17:22:26.712Z,94216.13
2019-01-08T17:24:56.433Z,94213.73
2019-01-08T17:27:25.048Z,94236.97
2019-01-08T17:29:53.626Z,94226.66
2019-01-08T17:32:22.231Z,94244.58
2019-01-08T17:34:50.828Z,94253.63
2019-01-08T17:37:19.915Z,94248.67
2019-01-08T17:39:48.498Z,94243.21
2019-01-08T17:42:17.109Z,94261.02
2019-01-08T17:44:45.712Z,94249.11
2019-01-08T17:47:14.343Z,94247.05
2019-01-08T17:49:42.914Z,94245.27
2019-01-08T17:52:11.537Z,94245.09
2019-01-08T17:54:40.133Z,94245.59
2019-01-08T17:57:08.948Z,94248.41
2019-01-08T17:59:37.535Z,94228.73
2019-01-08T18:02:09.622Z,94233.51
2019-01-08T18:04:38.246Z,94243.75
2019-01-08T18:07:06.894Z,94259.08
2019-01-08T18:09:35.485Z,94271.66
2019-01-08T18:12:04.377Z,94275.72
2019-01-08T18:14:33.051Z,94268.52
2019-01-08T18:17:01.670Z,94258.96
2019-01-08T18:19:30.264Z,94283.09
2019-01-08T18:21:58.876Z,94286.64
2019-01-08T18:24:27.783Z,94269.52
2019-01-08T18:26:56.352Z,94260.81
2019-01-08T18:29:24.971Z,94264.76
2019-01-08T18:31:54.407Z,94246.63
2019-01-08T18:34:23.181Z,94278.34
2019-01-08T18:36:51.801Z,94267.20
2019-01-08T18:39:20.376Z,94252.02
2019-01-08T18:41:49.466Z,94277.39
2019-01-08T18:44:18.289Z,94275.95
2019-01-08T18:46:46.864Z,94273.61
2019-01-08T18:49:15.499Z,94259.45
2019-01-08T18:51:44.321Z,94263.02
2019-01-08T18:54:13.208Z,94267.39
2019-01-08T18:56:42.034Z,94266.86
2019-01-08T18:59:10.853Z,94282.59
2019-01-08T19:01:39.677Z,94289.33
2019-01-08T19:04:08.266Z,94273.45
2019-01-08T19:06:36.910Z,94300.30
2019-01-08T19:09:26.231Z,94282.25
2019-01-08T19:11:55.262Z,94307.09
2019-01-08T19:14:26.399Z,94264.30
2019-01-08T19:16:55.014Z,94296.52
2019-01-08T19:19:23.858Z,94285.30
2019-01-08T19:21:52.425Z,94284.60
2019-01-08T19:24:21.276Z,94284.53
2019-01-08T19:26:50.335Z,94282.80
2019-01-08T19:29:18.954Z,94291.20
2019-01-08T19:31:47.796Z,94282.79
2019-01-08T19:34:17.678Z,94275.47
2019-01-08T19:36:46.552Z,94286.16
2019-01-08T19:39:15.159Z,94273.80
2019-01-08T19:41:43.713Z,94277.67
2019-01-08T19:44:12.297Z,94302.59
2019-01-08T19:46:40.872Z,94296.62
2019-01-08T19:49:09.498Z,94304.09
2019-01-08T19:51:38.092Z,94304.27
2019-01-08T19:54:06.887Z,94294.66
2019-01-08T19:56:35.487Z,94279.52
2019-01-08T19:59:04.318Z,94284.11
2019-01-08T20:01:32.907Z,94295.83
2019-01-08T20:04:03.552Z,94298.30
2019-01-08T20:06:32.507Z,94282.92
2019-01-08T20:09:01.326Z,94279.43
2019-01-08T20:11:29.910Z,94290.27
2019-01-08T20:13:58.474Z,94283.03
2019-01-08T20:16:27.296Z,94301.83
2019-01-08T20:18:55.940Z,94292.87
2019-01-08T20:21:24.515Z,94313.08
2019-01-08T20:23:53.095Z,94300.97
2019-01-08T20:26:21.909Z,94296.75
2019-01-08T20:28:50.491Z,94308.59
2019-01-08T20:31:19.053Z,94307.30
2019-01-08T20:33:47.928Z,94305.70
2019-01-08T20:36:16.510Z,94291.76
2019-01-08T20:38:45.090Z,94289.53
2019-01-08T20:41:14.022Z,94280.55
2019-01-08T20:43:42.581Z,94282.66
2019-01-08T20:46:11.675Z,94285.69
2019-01-08T20:48:40.265Z,94279.73
2019-01-08T20:51:09.137Z,94290.89
2019-01-08T20:53:37.768Z,94279.34
2019-01-08T20:56:06.630Z,94284.64
2019-01-08T20:58:35.570Z,94280.97
2019-01-08T21:01:04.256Z,94265.19
2019-01-08T21:03:33.210Z,94286.53
2019-01-08T21:06:02.461Z,94284.64
2019-01-08T21:08:31.074Z,94285.41
2019-01-08T21:10:59.902Z,94288.80
2019-01-08T21:13:28.780Z,94274.48
2019-01-08T21:15:58.117Z,94274.45
2019-01-08T21:18:26.834Z,94285.25
2019-01-08T21:20:55.416Z,94296.78
2019-01-08T21:23:23.999Z,94296.75
2019-01-08T21:25:52.561Z,94304.86
2019-01-08T21:28:21.159Z,94298.58
2019-01-08T21:30:50.317Z,94313.05
2019-01-08T21:33:18.900Z,94319.84
2019-01-08T21:35:47.500Z,94326.42
2019-01-08T21:38:16.115Z,94311.06
2019-01-08T21:40:44.714Z,94328.62
2019-01-08T21:43:13.507Z,94324.31
2019-01-08T21:45:42.103Z,94332.61
2019-01-08T21:48:11.003Z,94322.55
2019-01-08T21:50:39.565Z,94318.38
2019-01-08T21:53:08.145Z,94314.45
2019-01-08T21:55:36.762Z,94316.69
2019-01-08T21:58:05.293Z,94330.64
2019-01-08T22:00:33.855Z,94336.14
2019-01-08T22:03:02.682Z,94333.55
2019-01-08T22:05:31.503Z,94323.52
2019-01-08T22:08:00.672Z,94329.91
2019-01-08T22:10:29.229Z,94344.03
2019-01-08T22:12:57.801Z,94354.02
2019-01-08T22:15:26.410Z,94344.83
2019-01-08T22:17:54.985Z,94343.42
2019-01-08T22:20:23.588Z,94356.00
2019-01-08T22:22:52.799Z,94349.05
2019-01-08T22:25:21.641Z,94353.23
2019-01-08T22:27:50.489Z,94354.13
2019-01-08T22:30:19.354Z,94351.69
2019-01-08T22:32:47.936Z,94352.45
2019-01-08T22:35:16.554Z,94353.75
2019-01-08T22:37:45.387Z,94350.27
2019-01-08T22:40:13.968Z,94354.69
2019-01-08T22:42:42.560Z,94347.59
2019-01-08T22:45:11.176Z,94333.01
2019-01-08T22:47:39.728Z,94343.15
2019-01-08T22:50:09.012Z,94339.52
2019-01-08T22:52:37.905Z,94335.30
2019-01-08T22:55:06.680Z,94331.61
2019-01-08T22:57:36.214Z,94338.95
2019-01-08T23:00:12.709Z,94335.63
2019-01-08T23:02:41.377Z,94345.51
2019-01-08T23:05:10.985Z,94337.17
2019-01-08T23:07:39.738Z,94332.41
2019-01-08T23:10:08.312Z,94329.66
2019-01-08T23:12:36.892Z,94345.16
2019-01-08T23:15:05.914Z,94337.89
2019-01-08T23:17:34.494Z,94341.30
2019-01-08T23:20:03.257Z,94344.80
2019-01-08T23:22:31.897Z,94353.37
2019-01-08T23:25:00.508Z,94342.23
2019-01-08T23:27:29.097Z,94332.47
2019-01-08T23:29:57.684Z,94341.42
2019-01-08T23:32:26.283Z,94350.56
2019-01-08T23:34:54.845Z,94355.64
2019-01-08T23:37:23.436Z,94345.73
2019-01-08T23:39:52.022Z,94348.11
2019-01-08T23:42:20.647Z,94341.80
2019-01-08T23:44:49.261Z,94346.65
2019-01-08T23:47:17.862Z,94323.89
2019-01-08T23:49:46.449Z,94322.64
2019-01-08T23:52:23.613Z,94318.52
2019-01-08T23:54:53.777Z,94319.34
2019-01-08T23:57:23.462Z,94320.28
2019-01-08T23:59:52.043Z,94320.77
